sensor_id;sensor_type;location;lat;lon;timestamp;P1;P2;P0
70243;PMS7003;57634;51.136;17.024;2023-06-10T00:01:44;13;13;8
70243;PMS7003;57634;51.136;17.024;2023-06-10T00:04:48;16;14;9
70243;PMS7003;57634;51.136;17.024;2023-06-10T00:07:49;12;12;8
70243;PMS7003;57634;51.136;17.024;2023-06-10T00:10:50;15;14;9
70243;PMS7003;57634;51.136;17.024;2023-06-10T00:13:52;11;11;8
70243;PMS7003;57634;51.136;17.024;2023-06-10T00:16:53;12;12;8
70243;PMS7003;57634;51.136;17.024;2023-06-10T00:20:23;11;11;8
70243;PMS7003;57634;51.136;17.024;2023-06-10T00:23:26;12;12;8
70243;PMS7003;57634;51.136;17.024;2023-06-10T00:26:31;11;11;8
70243;PMS7003;57634;51.136;17.024;2023-06-10T00:29:33;12;11;8
70243;PMS7003;57634;51.136;17.024;2023-06-10T00:32:35;14;13;8
70243;PMS7003;57634;51.136;17.024;2023-06-10T00:35:37;12;12;8
70243;PMS7003;57634;51.136;17.024;2023-06-10T00:38:38;14;13;9
70243;PMS7003;57634;51.136;17.024;2023-06-10T00:41:41;13;12;8
70243;PMS7003;57634;51.136;17.024;2023-06-10T00:44:42;13;13;9
70243;PMS7003;57634;51.136;17.024;2023-06-10T00:47:44;11;11;8
70243;PMS7003;57634;51.136;17.024;2023-06-10T00:50:46;15;13;10
70243;PMS7003;57634;51.136;17.024;2023-06-10T00:53:47;15;14;10
70243;PMS7003;57634;51.136;17.024;2023-06-10T00:57:18;15;14;9
70243;PMS7003;57634;51.136;17.024;2023-06-10T01:00:19;17;16;9
70243;PMS7003;57634;51.136;17.024;2023-06-10T01:03:21;14;14;10
70243;PMS7003;57634;51.136;17.024;2023-06-10T01:06:30;12;12;9
70243;PMS7003;57634;51.136;17.024;2023-06-10T01:15:57;13;13;9
70243;PMS7003;57634;51.136;17.024;2023-06-10T01:19:26;14;14;9
70243;PMS7003;57634;51.136;17.024;2023-06-10T01:22:31;15;15;11
70243;PMS7003;57634;51.136;17.024;2023-06-10T01:25:37;12;12;8
70243;PMS7003;57634;51.136;17.024;2023-06-10T01:28:49;17;14;10
70243;PMS7003;57634;51.136;17.024;2023-06-10T01:32:08;13;13;8
70243;PMS7003;57634;51.136;17.024;2023-06-10T01:35:12;15;14;10
70243;PMS7003;57634;51.136;17.024;2023-06-10T01:38:40;15;14;10
70243;PMS7003;57634;51.136;17.024;2023-06-10T01:41:44;14;14;9
70243;PMS7003;57634;51.136;17.024;2023-06-10T01:44:47;12;11;7
70243;PMS7003;57634;51.136;17.024;2023-06-10T01:47:49;13;12;8
70243;PMS7003;57634;51.136;17.024;2023-06-10T01:50:50;13;13;9
70243;PMS7003;57634;51.136;17.024;2023-06-10T01:53:51;13;12;9
70243;PMS7003;57634;51.136;17.024;2023-06-10T01:56:52;14;13;9
70243;PMS7003;57634;51.136;17.024;2023-06-10T01:59:54;13;12;8
70243;PMS7003;57634;51.136;17.024;2023-06-10T02:02:55;14;13;8
70243;PMS7003;57634;51.136;17.024;2023-06-10T02:05:56;12;12;9
70243;PMS7003;57634;51.136;17.024;2023-06-10T02:08:58;13;12;7
70243;PMS7003;57634;51.136;17.024;2023-06-10T02:11:59;11;11;8
70243;PMS7003;57634;51.136;17.024;2023-06-10T02:15:01;12;11;7
70243;PMS7003;57634;51.136;17.024;2023-06-10T02:18:02;17;16;10
70243;PMS7003;57634;51.136;17.024;2023-06-10T02:21:29;12;12;8
70243;PMS7003;57634;51.136;17.024;2023-06-10T02:24:30;13;12;7
70243;PMS7003;57634;51.136;17.024;2023-06-10T02:27:31;11;10;7
70243;PMS7003;57634;51.136;17.024;2023-06-10T02:30:33;10;10;7
70243;PMS7003;57634;51.136;17.024;2023-06-10T02:33:34;12;11;8
70243;PMS7003;57634;51.136;17.024;2023-06-10T02:36:35;12;11;8
70243;PMS7003;57634;51.136;17.024;2023-06-10T02:39:37;11;11;6
70243;PMS7003;57634;51.136;17.024;2023-06-10T02:42:38;11;11;8
70243;PMS7003;57634;51.136;17.024;2023-06-10T02:45:40;12;12;8
70243;PMS7003;57634;51.136;17.024;2023-06-10T02:48:42;13;12;8
70243;PMS7003;57634;51.136;17.024;2023-06-10T02:51:47;12;11;8
70243;PMS7003;57634;51.136;17.024;2023-06-10T02:54:48;10;10;8
70243;PMS7003;57634;51.136;17.024;2023-06-10T02:57:50;10;10;7
70243;PMS7003;57634;51.136;17.024;2023-06-10T03:00:51;14;11;8
70243;PMS7003;57634;51.136;17.024;2023-06-10T03:04:17;11;11;8
70243;PMS7003;57634;51.136;17.024;2023-06-10T03:07:19;11;10;7
70243;PMS7003;57634;51.136;17.024;2023-06-10T03:10:21;12;10;6
70243;PMS7003;57634;51.136;17.024;2023-06-10T03:13:23;11;10;8
70243;PMS7003;57634;51.136;17.024;2023-06-10T03:16:24;12;12;8
70243;PMS7003;57634;51.136;17.024;2023-06-10T03:19:30;10;9;7
70243;PMS7003;57634;51.136;17.024;2023-06-10T03:22:33;10;9;6
70243;PMS7003;57634;51.136;17.024;2023-06-10T03:25:35;12;12;8
70243;PMS7003;57634;51.136;17.024;2023-06-10T03:28:36;15;15;10
70243;PMS7003;57634;51.136;17.024;2023-06-10T03:31:37;23;20;13
70243;PMS7003;57634;51.136;17.024;2023-06-10T03:34:40;14;14;9
70243;PMS7003;57634;51.136;17.024;2023-06-10T03:37:41;12;10;8
70243;PMS7003;57634;51.136;17.024;2023-06-10T03:40:43;13;11;7
70243;PMS7003;57634;51.136;17.024;2023-06-10T03:44:10;11;11;7
70243;PMS7003;57634;51.136;17.024;2023-06-10T03:47:12;11;11;7
70243;PMS7003;57634;51.136;17.024;2023-06-10T03:50:13;12;11;8
70243;PMS7003;57634;51.136;17.024;2023-06-10T03:53:15;9;8;6
70243;PMS7003;57634;51.136;17.024;2023-06-10T03:56:17;10;10;6
70243;PMS7003;57634;51.136;17.024;2023-06-10T03:59:18;10;9;7
70243;PMS7003;57634;51.136;17.024;2023-06-10T04:02:19;10;9;6
70243;PMS7003;57634;51.136;17.024;2023-06-10T04:05:22;9;9;7
70243;PMS7003;57634;51.136;17.024;2023-06-10T04:08:23;10;10;8
70243;PMS7003;57634;51.136;17.024;2023-06-10T04:11:24;11;10;7
70243;PMS7003;57634;51.136;17.024;2023-06-10T04:14:26;11;10;7
70243;PMS7003;57634;51.136;17.024;2023-06-10T04:17:27;12;11;7
70243;PMS7003;57634;51.136;17.024;2023-06-10T04:20:28;9;9;7
70243;PMS7003;57634;51.136;17.024;2023-06-10T04:23:29;12;12;8
70243;PMS7003;57634;51.136;17.024;2023-06-10T04:26:59;12;11;8
70243;PMS7003;57634;51.136;17.024;2023-06-10T04:30:01;10;10;7
70243;PMS7003;57634;51.136;17.024;2023-06-10T04:33:04;12;11;8
70243;PMS7003;57634;51.136;17.024;2023-06-10T04:36:09;14;13;9
70243;PMS7003;57634;51.136;17.024;2023-06-10T04:39:11;12;12;9
70243;PMS7003;57634;51.136;17.024;2023-06-10T04:42:12;12;12;9
70243;PMS7003;57634;51.136;17.024;2023-06-10T04:45:17;14;12;9
70243;PMS7003;57634;51.136;17.024;2023-06-10T04:48:18;12;12;9
70243;PMS7003;57634;51.136;17.024;2023-06-10T04:51:20;13;12;8
70243;PMS7003;57634;51.136;17.024;2023-06-10T04:54:21;14;13;9
70243;PMS7003;57634;51.136;17.024;2023-06-10T04:57:23;13;13;9
70243;PMS7003;57634;51.136;17.024;2023-06-10T05:00:24;12;12;8
70243;PMS7003;57634;51.136;17.024;2023-06-10T05:03:53;12;12;9
70243;PMS7003;57634;51.136;17.024;2023-06-10T05:06:54;15;13;9
70243;PMS7003;57634;51.136;17.024;2023-06-10T05:09:56;13;12;9
70243;PMS7003;57634;51.136;17.024;2023-06-10T05:12:58;12;12;8
70243;PMS7003;57634;51.136;17.024;2023-06-10T05:16:00;12;12;9
70243;PMS7003;57634;51.136;17.024;2023-06-10T05:19:02;14;14;10
70243;PMS7003;57634;51.136;17.024;2023-06-10T05:22:04;14;14;10
70243;PMS7003;57634;51.136;17.024;2023-06-10T05:25:06;14;14;9
70243;PMS7003;57634;51.136;17.024;2023-06-10T05:28:08;16;15;11
70243;PMS7003;57634;51.136;17.024;2023-06-10T05:31:12;12;12;9
70243;PMS7003;57634;51.136;17.024;2023-06-10T05:34:13;13;13;9
70243;PMS7003;57634;51.136;17.024;2023-06-10T05:37:15;14;14;10
70243;PMS7003;57634;51.136;17.024;2023-06-10T05:40:16;14;14;11
70243;PMS7003;57634;51.136;17.024;2023-06-10T05:43:44;14;13;9
70243;PMS7003;57634;51.136;17.024;2023-06-10T05:46:46;11;10;7
70243;PMS7003;57634;51.136;17.024;2023-06-10T05:49:47;16;15;10
70243;PMS7003;57634;51.136;17.024;2023-06-10T05:52:52;15;15;10
70243;PMS7003;57634;51.136;17.024;2023-06-10T05:55:55;15;15;12
70243;PMS7003;57634;51.136;17.024;2023-06-10T05:58:58;17;15;11
70243;PMS7003;57634;51.136;17.024;2023-06-10T06:01:59;14;13;9
70243;PMS7003;57634;51.136;17.024;2023-06-10T06:05:00;13;13;10
70243;PMS7003;57634;51.136;17.024;2023-06-10T06:08:02;14;14;11
70243;PMS7003;57634;51.136;17.024;2023-06-10T06:11:03;14;14;11
70243;PMS7003;57634;51.136;17.024;2023-06-10T06:14:04;16;15;12
70243;PMS7003;57634;51.136;17.024;2023-06-10T06:17:06;14;13;10
70243;PMS7003;57634;51.136;17.024;2023-06-10T06:20:07;17;17;11
70243;PMS7003;57634;51.136;17.024;2023-06-10T06:23:35;18;17;12
70243;PMS7003;57634;51.136;17.024;2023-06-10T06:26:36;18;17;13
70243;PMS7003;57634;51.136;17.024;2023-06-10T06:29:38;18;16;13
70243;PMS7003;57634;51.136;17.024;2023-06-10T06:32:39;18;17;13
70243;PMS7003;57634;51.136;17.024;2023-06-10T06:35:40;15;15;12
70243;PMS7003;57634;51.136;17.024;2023-06-10T06:38:41;17;17;12
70243;PMS7003;57634;51.136;17.024;2023-06-10T06:41:43;19;18;13
70243;PMS7003;57634;51.136;17.024;2023-06-10T06:44:44;15;14;11
70243;PMS7003;57634;51.136;17.024;2023-06-10T06:47:47;15;15;11
70243;PMS7003;57634;51.136;17.024;2023-06-10T06:50:48;22;20;13
70243;PMS7003;57634;51.136;17.024;2023-06-10T06:53:49;18;18;13
70243;PMS7003;57634;51.136;17.024;2023-06-10T06:56:54;21;18;12
70243;PMS7003;57634;51.136;17.024;2023-06-10T06:59:55;18;16;11
70243;PMS7003;57634;51.136;17.024;2023-06-10T07:02:57;16;15;11
70243;PMS7003;57634;51.136;17.024;2023-06-10T07:06:24;16;16;12
70243;PMS7003;57634;51.136;17.024;2023-06-10T07:09:27;17;16;12
70243;PMS7003;57634;51.136;17.024;2023-06-10T07:12:28;18;17;13
70243;PMS7003;57634;51.136;17.024;2023-06-10T07:15:30;16;15;12
70243;PMS7003;57634;51.136;17.024;2023-06-10T07:18:33;15;15;11
70243;PMS7003;57634;51.136;17.024;2023-06-10T07:21:35;14;14;12
70243;PMS7003;57634;51.136;17.024;2023-06-10T07:24:36;16;16;12
70243;PMS7003;57634;51.136;17.024;2023-06-10T07:27:38;16;16;11
70243;PMS7003;57634;51.136;17.024;2023-06-10T07:30:39;17;17;12
70243;PMS7003;57634;51.136;17.024;2023-06-10T07:33:40;16;15;11
70243;PMS7003;57634;51.136;17.024;2023-06-10T07:36:44;15;14;11
70243;PMS7003;57634;51.136;17.024;2023-06-10T07:39:45;16;15;12
70243;PMS7003;57634;51.136;17.024;2023-06-10T07:42:47;18;17;13
70243;PMS7003;57634;51.136;17.024;2023-06-10T07:46:15;16;15;13
70243;PMS7003;57634;51.136;17.024;2023-06-10T07:49:16;18;18;14
70243;PMS7003;57634;51.136;17.024;2023-06-10T07:52:18;16;15;11
70243;PMS7003;57634;51.136;17.024;2023-06-10T07:55:19;18;17;13
70243;PMS7003;57634;51.136;17.024;2023-06-10T07:58:20;14;14;11
70243;PMS7003;57634;51.136;17.024;2023-06-10T08:01:23;18;17;13
70243;PMS7003;57634;51.136;17.024;2023-06-10T08:04:25;19;17;13
70243;PMS7003;57634;51.136;17.024;2023-06-10T08:07:27;18;17;12
70243;PMS7003;57634;51.136;17.024;2023-06-10T08:10:28;16;16;12
70243;PMS7003;57634;51.136;17.024;2023-06-10T08:13:30;17;16;13
70243;PMS7003;57634;51.136;17.024;2023-06-10T08:16:31;17;16;10
70243;PMS7003;57634;51.136;17.024;2023-06-10T08:19:32;15;14;10
70243;PMS7003;57634;51.136;17.024;2023-06-10T08:22:33;14;14;9
70243;PMS7003;57634;51.136;17.024;2023-06-10T08:25:34;12;12;10
70243;PMS7003;57634;51.136;17.024;2023-06-10T08:29:02;14;13;10
70243;PMS7003;57634;51.136;17.024;2023-06-10T08:32:04;12;12;9
70243;PMS7003;57634;51.136;17.024;2023-06-10T08:35:05;13;12;9
70243;PMS7003;57634;51.136;17.024;2023-06-10T08:38:07;10;10;9
70243;PMS7003;57634;51.136;17.024;2023-06-10T08:41:09;10;10;8
70243;PMS7003;57634;51.136;17.024;2023-06-10T08:44:17;9;9;7
70243;PMS7003;57634;51.136;17.024;2023-06-10T08:47:28;10;9;8
70243;PMS7003;57634;51.136;17.024;2023-06-10T08:51:17;9;9;8
70243;PMS7003;57634;51.136;17.024;2023-06-10T08:54:20;9;9;8
70243;PMS7003;57634;51.136;17.024;2023-06-10T08:57:26;11;10;8
70243;PMS7003;57634;51.136;17.024;2023-06-10T09:00:28;7;7;6
70243;PMS7003;57634;51.136;17.024;2023-06-10T09:03:31;13;11;9
70243;PMS7003;57634;51.136;17.024;2023-06-10T09:06:35;11;10;8
70243;PMS7003;57634;51.136;17.024;2023-06-10T09:09:38;11;10;7
70243;PMS7003;57634;51.136;17.024;2023-06-10T09:12:41;8;8;7
70243;PMS7003;57634;51.136;17.024;2023-06-10T09:15:42;4;4;3
70243;PMS7003;57634;51.136;17.024;2023-06-10T09:18:43;7;7;6
70243;PMS7003;57634;51.136;17.024;2023-06-10T09:22:11;9;9;8
70243;PMS7003;57634;51.136;17.024;2023-06-10T09:25:13;11;11;8
70243;PMS7003;57634;51.136;17.024;2023-06-10T09:28:14;12;12;10
70243;PMS7003;57634;51.136;17.024;2023-06-10T09:31:16;13;13;10
70243;PMS7003;57634;51.136;17.024;2023-06-10T09:34:24;13;13;9
70243;PMS7003;57634;51.136;17.024;2023-06-10T09:37:27;15;14;12
70243;PMS7003;57634;51.136;17.024;2023-06-10T09:40:28;15;14;11
70243;PMS7003;57634;51.136;17.024;2023-06-10T09:46:42;13;13;10
70243;PMS7003;57634;51.136;17.024;2023-06-10T09:50:13;12;12;9
70243;PMS7003;57634;51.136;17.024;2023-06-10T09:53:14;16;15;11
70243;PMS7003;57634;51.136;17.024;2023-06-10T09:56:18;11;11;10
70243;PMS7003;57634;51.136;17.024;2023-06-10T10:02:33;15;15;11
70243;PMS7003;57634;51.136;17.024;2023-06-10T10:05:44;15;15;12
70243;PMS7003;57634;51.136;17.024;2023-06-10T10:08:47;16;16;11
70243;PMS7003;57634;51.136;17.024;2023-06-10T10:11:50;14;13;11
70243;PMS7003;57634;51.136;17.024;2023-06-10T10:15:19;16;16;13
70243;PMS7003;57634;51.136;17.024;2023-06-10T10:18:23;17;16;12
70243;PMS7003;57634;51.136;17.024;2023-06-10T10:21:31;17;17;13
70243;PMS7003;57634;51.136;17.024;2023-06-10T10:24:39;14;14;11
70243;PMS7003;57634;51.136;17.024;2023-06-10T10:31:03;14;14;12
70243;PMS7003;57634;51.136;17.024;2023-06-10T10:37:49;11;11;9
70243;PMS7003;57634;51.136;17.024;2023-06-10T10:40:54;14;13;11
70243;PMS7003;57634;51.136;17.024;2023-06-10T10:44:01;12;12;9
70243;PMS7003;57634;51.136;17.024;2023-06-10T10:47:08;13;13;10
70243;PMS7003;57634;51.136;17.024;2023-06-10T11:00:23;15;15;11
70243;PMS7003;57634;51.136;17.024;2023-06-10T11:03:29;10;10;8
70243;PMS7003;57634;51.136;17.024;2023-06-10T11:06:33;13;13;10
70243;PMS7003;57634;51.136;17.024;2023-06-10T11:10:02;11;11;9
70243;PMS7003;57634;51.136;17.024;2023-06-10T11:13:13;13;13;10
70243;PMS7003;57634;51.136;17.024;2023-06-10T11:16:19;13;13;10
70243;PMS7003;57634;51.136;17.024;2023-06-10T11:22:58;9;8;7
70243;PMS7003;57634;51.136;17.024;2023-06-10T11:26:17;13;11;10
70243;PMS7003;57634;51.136;17.024;2023-06-10T11:29:32;9;9;7
70243;PMS7003;57634;51.136;17.024;2023-06-10T11:32:34;9;8;7
70243;PMS7003;57634;51.136;17.024;2023-06-10T11:35:35;11;10;8
70243;PMS7003;57634;51.136;17.024;2023-06-10T11:38:37;12;10;8
70243;PMS7003;57634;51.136;17.024;2023-06-10T11:41:39;12;11;8
70243;PMS7003;57634;51.136;17.024;2023-06-10T11:44:47;10;10;8
70243;PMS7003;57634;51.136;17.024;2023-06-10T11:47:55;10;9;6
70243;PMS7003;57634;51.136;17.024;2023-06-10T11:51:28;12;11;8
70243;PMS7003;57634;51.136;17.024;2023-06-10T11:54:33;10;10;7
70243;PMS7003;57634;51.136;17.024;2023-06-10T11:57:34;10;9;7
70243;PMS7003;57634;51.136;17.024;2023-06-10T12:00:43;10;10;8
70243;PMS7003;57634;51.136;17.024;2023-06-10T12:06:59;11;11;9
70243;PMS7003;57634;51.136;17.024;2023-06-10T12:10:01;9;9;7
70243;PMS7003;57634;51.136;17.024;2023-06-10T12:13:31;10;9;7
70243;PMS7003;57634;51.136;17.024;2023-06-10T12:16:33;10;9;7
70243;PMS7003;57634;51.136;17.024;2023-06-10T12:19:38;13;12;9
70243;PMS7003;57634;51.136;17.024;2023-06-10T12:22:40;8;8;7
70243;PMS7003;57634;51.136;17.024;2023-06-10T12:28:52;10;10;8
70243;PMS7003;57634;51.136;17.024;2023-06-10T12:31:54;11;11;9
70243;PMS7003;57634;51.136;17.024;2023-06-10T12:38:07;15;15;12
70243;PMS7003;57634;51.136;17.024;2023-06-10T12:41:36;13;10;8
70243;PMS7003;57634;51.136;17.024;2023-06-10T12:44:39;12;11;8
70243;PMS7003;57634;51.136;17.024;2023-06-10T12:47:42;9;8;6
70243;PMS7003;57634;51.136;17.024;2023-06-10T12:50:43;12;12;10
70243;PMS7003;57634;51.136;17.024;2023-06-10T12:53:46;10;10;8
70243;PMS7003;57634;51.136;17.024;2023-06-10T12:56:48;11;11;8
70243;PMS7003;57634;51.136;17.024;2023-06-10T12:59:49;9;9;8
70243;PMS7003;57634;51.136;17.024;2023-06-10T13:02:53;10;10;8
70243;PMS7003;57634;51.136;17.024;2023-06-10T13:05:54;9;9;7
70243;PMS7003;57634;51.136;17.024;2023-06-10T13:08:56;10;9;8
70243;PMS7003;57634;51.136;17.024;2023-06-10T13:11:57;10;9;7
70243;PMS7003;57634;51.136;17.024;2023-06-10T13:15:00;9;8;7
70243;PMS7003;57634;51.136;17.024;2023-06-10T13:18:28;8;8;7
70243;PMS7003;57634;51.136;17.024;2023-06-10T13:21:29;9;9;7
70243;PMS7003;57634;51.136;17.024;2023-06-10T13:24:30;9;9;8
70243;PMS7003;57634;51.136;17.024;2023-06-10T13:27:31;9;9;6
70243;PMS7003;57634;51.136;17.024;2023-06-10T13:30:32;8;8;7
70243;PMS7003;57634;51.136;17.024;2023-06-10T13:33:34;6;6;4
70243;PMS7003;57634;51.136;17.024;2023-06-10T13:36:35;7;7;6
70243;PMS7003;57634;51.136;17.024;2023-06-10T13:39:36;6;6;5
70243;PMS7003;57634;51.136;17.024;2023-06-10T13:42:38;7;7;5
70243;PMS7003;57634;51.136;17.024;2023-06-10T13:45:39;7;6;5
70243;PMS7003;57634;51.136;17.024;2023-06-10T13:48:41;7;7;6
70243;PMS7003;57634;51.136;17.024;2023-06-10T13:51:42;6;6;5
70243;PMS7003;57634;51.136;17.024;2023-06-10T13:54:44;7;7;5
70243;PMS7003;57634;51.136;17.024;2023-06-10T13:57:45;8;7;6
70243;PMS7003;57634;51.136;17.024;2023-06-10T14:01:15;6;6;5
70243;PMS7003;57634;51.136;17.024;2023-06-10T14:04:16;6;6;5
70243;PMS7003;57634;51.136;17.024;2023-06-10T14:07:17;7;7;5
70243;PMS7003;57634;51.136;17.024;2023-06-10T14:10:19;5;5;4
70243;PMS7003;57634;51.136;17.024;2023-06-10T14:13:20;8;6;5
70243;PMS7003;57634;51.136;17.024;2023-06-10T14:16:22;7;5;4
70243;PMS7003;57634;51.136;17.024;2023-06-10T14:19:23;4;4;3
70243;PMS7003;57634;51.136;17.024;2023-06-10T14:22:24;3;3;3
70243;PMS7003;57634;51.136;17.024;2023-06-10T14:25:26;4;4;3
70243;PMS7003;57634;51.136;17.024;2023-06-10T14:28:27;5;5;3
70243;PMS7003;57634;51.136;17.024;2023-06-10T14:31:29;4;4;4
70243;PMS7003;57634;51.136;17.024;2023-06-10T14:34:30;6;5;4
70243;PMS7003;57634;51.136;17.024;2023-06-10T14:37:34;7;7;5
70243;PMS7003;57634;51.136;17.024;2023-06-10T14:40:35;4;4;4
70243;PMS7003;57634;51.136;17.024;2023-06-10T14:44:03;4;4;3
70243;PMS7003;57634;51.136;17.024;2023-06-10T14:47:04;5;5;3
70243;PMS7003;57634;51.136;17.024;2023-06-10T14:50:07;4;4;3
70243;PMS7003;57634;51.136;17.024;2023-06-10T14:53:09;4;4;3
70243;PMS7003;57634;51.136;17.024;2023-06-10T14:56:10;5;5;4
70243;PMS7003;57634;51.136;17.024;2023-06-10T14:59:12;4;4;3
70243;PMS7003;57634;51.136;17.024;2023-06-10T15:02:14;5;5;3
70243;PMS7003;57634;51.136;17.024;2023-06-10T15:05:15;4;4;3
70243;PMS7003;57634;51.136;17.024;2023-06-10T15:08:17;6;6;4
70243;PMS7003;57634;51.136;17.024;2023-06-10T15:11:19;1;1;1
70243;PMS7003;57634;51.136;17.024;2023-06-10T15:14:22;5;5;5
70243;PMS7003;57634;51.136;17.024;2023-06-10T15:17:23;10;9;7
70243;PMS7003;57634;51.136;17.024;2023-06-10T15:20:24;7;7;5
70243;PMS7003;57634;51.136;17.024;2023-06-10T15:23:53;5;4;4
70243;PMS7003;57634;51.136;17.024;2023-06-10T15:26:54;4;4;3
70243;PMS7003;57634;51.136;17.024;2023-06-10T15:29:55;5;4;3
70243;PMS7003;57634;51.136;17.024;2023-06-10T15:32:56;6;6;4
70243;PMS7003;57634;51.136;17.024;2023-06-10T15:35:58;4;4;3
70243;PMS7003;57634;51.136;17.024;2023-06-10T15:39:00;6;6;4
70243;PMS7003;57634;51.136;17.024;2023-06-10T15:42:04;7;7;5
70243;PMS7003;57634;51.136;17.024;2023-06-10T15:45:06;6;6;5
70243;PMS7003;57634;51.136;17.024;2023-06-10T15:48:08;5;5;4
70243;PMS7003;57634;51.136;17.024;2023-06-10T15:51:09;5;3;3
70243;PMS7003;57634;51.136;17.024;2023-06-10T15:54:11;3;3;2
70243;PMS7003;57634;51.136;17.024;2023-06-10T15:57:13;3;3;3
70243;PMS7003;57634;51.136;17.024;2023-06-10T16:00:15;4;4;3
70243;PMS7003;57634;51.136;17.024;2023-06-10T16:03:43;3;3;2
70243;PMS7003;57634;51.136;17.024;2023-06-10T16:06:45;3;3;2
70243;PMS7003;57634;51.136;17.024;2023-06-10T16:09:46;3;3;2
70243;PMS7003;57634;51.136;17.024;2023-06-10T16:12:47;4;4;3
70243;PMS7003;57634;51.136;17.024;2023-06-10T16:15:48;4;3;2
70243;PMS7003;57634;51.136;17.024;2023-06-10T16:18:50;3;3;2
70243;PMS7003;57634;51.136;17.024;2023-06-10T16:21:51;4;4;2
70243;PMS7003;57634;51.136;17.024;2023-06-10T16:24:52;4;4;4
70243;PMS7003;57634;51.136;17.024;2023-06-10T16:27:53;4;4;3
70243;PMS7003;57634;51.136;17.024;2023-06-10T16:30:54;4;3;3
70243;PMS7003;57634;51.136;17.024;2023-06-10T16:33:56;3;3;3
70243;PMS7003;57634;51.136;17.024;2023-06-10T16:36:57;5;4;3
70243;PMS7003;57634;51.136;17.024;2023-06-10T16:39:58;4;4;3
70243;PMS7003;57634;51.136;17.024;2023-06-10T16:43:00;4;4;3
70243;PMS7003;57634;51.136;17.024;2023-06-10T16:46:01;4;4;3
70243;PMS7003;57634;51.136;17.024;2023-06-10T16:49:28;5;4;4
70243;PMS7003;57634;51.136;17.024;2023-06-10T16:52:29;5;4;2
70243;PMS7003;57634;51.136;17.024;2023-06-10T16:55:31;5;3;2
70243;PMS7003;57634;51.136;17.024;2023-06-10T16:58:32;6;5;4
70243;PMS7003;57634;51.136;17.024;2023-06-10T17:01:34;4;4;3
70243;PMS7003;57634;51.136;17.024;2023-06-10T17:04:35;6;5;4
70243;PMS7003;57634;51.136;17.024;2023-06-10T17:07:37;3;3;3
70243;PMS7003;57634;51.136;17.024;2023-06-10T17:10:38;4;3;2
70243;PMS7003;57634;51.136;17.024;2023-06-10T17:13:39;5;5;3
70243;PMS7003;57634;51.136;17.024;2023-06-10T17:16:41;5;5;3
70243;PMS7003;57634;51.136;17.024;2023-06-10T17:19:42;3;3;2
70243;PMS7003;57634;51.136;17.024;2023-06-10T17:22:43;4;3;3
70243;PMS7003;57634;51.136;17.024;2023-06-10T17:25:44;4;4;3
70243;PMS7003;57634;51.136;17.024;2023-06-10T17:28:45;4;4;3
70243;PMS7003;57634;51.136;17.024;2023-06-10T17:31:47;4;3;3
70243;PMS7003;57634;51.136;17.024;2023-06-10T17:35:13;4;4;4
70243;PMS7003;57634;51.136;17.024;2023-06-10T17:38:15;4;4;3
70243;PMS7003;57634;51.136;17.024;2023-06-10T17:41:20;4;3;2
70243;PMS7003;57634;51.136;17.024;2023-06-10T17:44:21;3;3;2
70243;PMS7003;57634;51.136;17.024;2023-06-10T17:47:25;5;5;3
70243;PMS7003;57634;51.136;17.024;2023-06-10T17:50:27;5;4;3
70243;PMS7003;57634;51.136;17.024;2023-06-10T17:53:28;4;4;2
70243;PMS7003;57634;51.136;17.024;2023-06-10T17:56:30;5;4;3
70243;PMS7003;57634;51.136;17.024;2023-06-10T17:59:32;4;4;3
70243;PMS7003;57634;51.136;17.024;2023-06-10T18:02:33;3;3;3
70243;PMS7003;57634;51.136;17.024;2023-06-10T18:05:35;4;3;2
70243;PMS7003;57634;51.136;17.024;2023-06-10T18:08:37;3;3;2
70243;PMS7003;57634;51.136;17.024;2023-06-10T18:11:38;5;4;3
70243;PMS7003;57634;51.136;17.024;2023-06-10T18:15:05;4;3;2
70243;PMS7003;57634;51.136;17.024;2023-06-10T18:18:07;3;3;3
70243;PMS7003;57634;51.136;17.024;2023-06-10T18:21:10;4;4;3
70243;PMS7003;57634;51.136;17.024;2023-06-10T18:24:11;5;4;3
70243;PMS7003;57634;51.136;17.024;2023-06-10T18:27:13;3;3;3
70243;PMS7003;57634;51.136;17.024;2023-06-10T18:30:14;3;3;2
70243;PMS7003;57634;51.136;17.024;2023-06-10T18:33:15;4;4;3
70243;PMS7003;57634;51.136;17.024;2023-06-10T18:36:17;4;3;2
70243;PMS7003;57634;51.136;17.024;2023-06-10T18:39:18;2;2;2
70243;PMS7003;57634;51.136;17.024;2023-06-10T18:42:20;6;4;3
70243;PMS7003;57634;51.136;17.024;2023-06-10T18:45:21;5;4;3
70243;PMS7003;57634;51.136;17.024;2023-06-10T18:48:23;4;4;3
70243;PMS7003;57634;51.136;17.024;2023-06-10T18:51:25;4;4;2
70243;PMS7003;57634;51.136;17.024;2023-06-10T18:54:27;11;10;7
70243;PMS7003;57634;51.136;17.024;2023-06-10T18:57:54;4;4;3
70243;PMS7003;57634;51.136;17.024;2023-06-10T19:00:55;5;5;3
70243;PMS7003;57634;51.136;17.024;2023-06-10T19:03:57;5;4;3
70243;PMS7003;57634;51.136;17.024;2023-06-10T19:06:58;5;5;4
70243;PMS7003;57634;51.136;17.024;2023-06-10T19:10:00;6;6;4
70243;PMS7003;57634;51.136;17.024;2023-06-10T19:13:02;9;7;5
70243;PMS7003;57634;51.136;17.024;2023-06-10T19:16:04;9;9;6
70243;PMS7003;57634;51.136;17.024;2023-06-10T19:19:07;8;6;4
70243;PMS7003;57634;51.136;17.024;2023-06-10T19:22:08;5;5;4
70243;PMS7003;57634;51.136;17.024;2023-06-10T19:25:09;6;6;4
70243;PMS7003;57634;51.136;17.024;2023-06-10T19:28:11;20;19;15
70243;PMS7003;57634;51.136;17.024;2023-06-10T19:31:12;12;12;8
70243;PMS7003;57634;51.136;17.024;2023-06-10T19:34:13;6;5;4
70243;PMS7003;57634;51.136;17.024;2023-06-10T19:37:14;5;5;3
70243;PMS7003;57634;51.136;17.024;2023-06-10T19:40:43;5;5;4
70243;PMS7003;57634;51.136;17.024;2023-06-10T19:43:45;3;3;2
70243;PMS7003;57634;51.136;17.024;2023-06-10T19:46:46;4;3;2
70243;PMS7003;57634;51.136;17.024;2023-06-10T19:49:48;5;4;3
70243;PMS7003;57634;51.136;17.024;2023-06-10T19:52:49;4;4;3
70243;PMS7003;57634;51.136;17.024;2023-06-10T19:55:51;4;4;2
70243;PMS7003;57634;51.136;17.024;2023-06-10T19:58:52;5;5;4
70243;PMS7003;57634;51.136;17.024;2023-06-10T20:01:54;5;4;3
70243;PMS7003;57634;51.136;17.024;2023-06-10T20:04:55;6;6;5
70243;PMS7003;57634;51.136;17.024;2023-06-10T20:07:57;8;8;6
70243;PMS7003;57634;51.136;17.024;2023-06-10T20:10:58;10;7;5
70243;PMS7003;57634;51.136;17.024;2023-06-10T20:14:00;1;1;0
70243;PMS7003;57634;51.136;17.024;2023-06-10T20:17:01;9;8;6
70243;PMS7003;57634;51.136;17.024;2023-06-10T20:20:02;9;7;6
70243;PMS7003;57634;51.136;17.024;2023-06-10T20:23:31;6;6;5
70243;PMS7003;57634;51.136;17.024;2023-06-10T20:26:33;6;6;5
70243;PMS7003;57634;51.136;17.024;2023-06-10T20:29:34;5;5;4
70243;PMS7003;57634;51.136;17.024;2023-06-10T20:32:35;5;4;4
70243;PMS7003;57634;51.136;17.024;2023-06-10T20:35:36;7;6;4
70243;PMS7003;57634;51.136;17.024;2023-06-10T20:38:38;5;5;4
70243;PMS7003;57634;51.136;17.024;2023-06-10T20:41:39;5;5;4